This is the latest recevied weather packets stored in our database for station/object WD4HMR. If no packets are shown the sender has not sent any weather packets the latest 10 day(s).
| Time | Temp. | Humidity | Pressure | Rain* | Wind** | Luminosity | Snow |
|---|---|---|---|---|---|---|---|
| 1777738504 | 14.44° C | 59% | 1017.3 hPa | 0 mm | - | 1025 W/m² | - |
| 1777738205 | 13.89° C | 60% | 1017.4 hPa | 0 mm | - | 1007 W/m² | - |
| 1777737303 | 13.89° C | 61% | 1017.2 hPa | 0 mm | - | 949 W/m² | - |
| 1777735504 | 13.33° C | 68% | 1017.1 hPa | 0 mm | - | 827 W/m² | - |
| 1777735204 | 13.33° C | 67% | 1017.1 hPa | 0 mm | - | 806 W/m² | - |
| 1777734903 | 12.78° C | 68% | 1017 hPa | 0 mm | - | 784 W/m² | - |
| 1777731603 | 12.78° C | 68% | 1016.5 hPa | 0 mm | - | 547 W/m² | - |
| 1777731004 | 12.78° C | 68% | 1016.5 hPa | 0 mm | - | 504 W/m² | - |
| 1777730704 | 12.78° C | 66% | 1016.5 hPa | 0 mm | - | 483 W/m² | - |
| 1777729504 | 12.22° C | 68% | 1016.3 hPa | 0 mm | - | 401 W/m² | - |
| 1777728604 | 11.67° C | 71% | 1016.2 hPa | 0 mm | - | 342 W/m² | - |
| 1777728304 | 11.67° C | 70% | 1016 hPa | 0 mm | - | 322 W/m² | - |
| 1777728004 | 11.67° C | 70% | 1015.9 hPa | 0 mm | - | 303 W/m² | - |
| 1777727104 | 11.67° C | 70% | 1015.7 hPa | 0 mm | - | 248 W/m² | - |
| 1777725309 | 11.67° C | 70% | 1015.7 hPa | 0 mm | - | 124 W/m² | - |
| 1777724404 | 11.67° C | 70% | 1015.7 hPa | 0 mm | - | 67 W/m² | - |
| 1777724104 | 11.67° C | 70% | 1015.6 hPa | 0 mm | - | 55 W/m² | - |
| 1777723804 | 11.67° C | 70% | 1015.5 hPa | 0 mm | - | 45 W/m² | - |
| 1777723203 | 11.67° C | 71% | 1015.4 hPa | 0 mm | - | 28 W/m² | - |
| 1777722904 | 11.67° C | 71% | 1015.4 hPa | 0 mm | - | 20 W/m² | - |
| 1777722615 | 11.67° C | 70% | 1015.5 hPa | 0 mm | - | 12 W/m² | - |
| 1777721704 | 11.67° C | 69% | 1015.5 hPa | 0 mm | - | 16 W/m² | - |
| 1777720804 | 11.67° C | 67% | 1015.4 hPa | 0 mm | - | 7 W/m² | - |
| 1777720504 | 11.67° C | 66% | 1015.3 hPa | 0 mm | - | 8 W/m² | - |
| 1777719904 | 11.67° C | 68% | 1015 hPa | 0 mm | - | 2 W/m² | - |
* Rain latest hour (hover to see other rain measurements)
** Current wind speed in m/s (hover to see current wind gust speed)